Time;durP1;ratioP1;P1;durP2;ratioP2;P2;SDS_P1;SDS_P2;PMS_P1;PMS_P2;Temp;Humidity;BMP_temperature;BMP_pressure;BME280_temperature;BME280_humidity;BME280_pressure;Samples;Min_cycle;Max_cycle;Signal;HPM_P1;HPM_P2
2023/08/31 00:00:51;;;;;;;;;;;11.70;99.90;;;;;;5122010;27;20297;-44
2023/08/31 00:03:16;;;;;;;;;;;11.60;99.90;;;;;;5134146;27;19907;-45
2023/08/31 00:05:42;;;;;;;;;;;11.60;99.90;;;;;;5132788;27;19918;-45
2023/08/31 00:08:08;;;;;;;;;;;11.60;99.90;;;;;;5134100;27;19907;-45
2023/08/31 00:10:35;;;;;;;;;;;11.60;99.90;;;;;;5134186;27;19999;-46
2023/08/31 00:13:01;;;;;;;;;;;11.70;99.90;;;;;;5134265;27;19935;-44
2023/08/31 00:15:28;;;;;;;;;;;11.70;99.90;;;;;;5133702;27;19915;-44
2023/08/31 00:17:54;;;;;;;;;;;11.70;99.90;;;;;;5133968;27;19907;-44
2023/08/31 00:20:19;;;;;;;;;;;11.70;99.90;;;;;;5134065;27;20366;-48
2023/08/31 00:22:45;;;;;;;;;;;11.70;99.90;;;;;;5133822;27;19912;-44
2023/08/31 00:25:10;;;;;;;;;;;11.80;99.90;;;;;;5133573;27;20009;-44
2023/08/31 00:27:37;;;;;;;;;;;11.80;99.90;;;;;;5133899;27;19912;-44
2023/08/31 00:30:06;;;;;;;;;;;11.80;99.90;;;;;;5133758;27;19915;-44
2023/08/31 00:32:33;;;;;;;;;;;11.90;99.90;;;;;;5133434;27;19993;-44
2023/08/31 00:34:59;;;;;;;;;;;11.80;99.90;;;;;;5133795;27;20365;-45
2023/08/31 00:37:24;;;;;;;;;;;11.80;99.90;;;;;;5133728;28;19951;-44
2023/08/31 00:39:52;;;;;;;;;;;11.80;99.90;;;;;;5133600;27;19931;-45
2023/08/31 00:42:18;;;;;;;;;;;11.70;99.90;;;;;;5133465;28;20259;-43
2023/08/31 00:44:46;;;;;;;;;;;11.70;99.90;;;;;;5133393;28;19911;-46
2023/08/31 00:47:12;;;;;;;;;;;11.70;99.90;;;;;;5133544;27;20291;-46
2023/08/31 00:49:39;;;;;;;;;;;11.70;99.90;;;;;;5133514;28;19922;-44
2023/08/31 00:52:04;;;;;;;;;;;11.70;99.90;;;;;;5133598;28;19914;-44
2023/08/31 00:54:31;;;;;;;;;;;11.60;99.90;;;;;;5132806;28;19911;-44
2023/08/31 00:56:57;;;;;;;;;;;11.70;99.90;;;;;;5133668;28;19915;-44
2023/08/31 00:59:23;;;;;;;;;;;11.70;99.90;;;;;;5133629;28;19908;-45
2023/08/31 01:01:58;;;;;;;;;;;11.70;99.90;;;;;;5133623;28;19994;-46
2023/08/31 01:04:33;;;;;;;;;;;11.80;99.90;;;;;;5132680;28;19915;-44
2023/08/31 01:07:17;;;;;;;;;;;11.80;99.90;;;;;;5133820;28;19960;-44
2023/08/31 01:09:48;;;;;;;;;;;11.80;99.90;;;;;;5133341;28;19922;-44
2023/08/31 01:12:21;;;;;;;;;;;11.80;99.90;;;;;;5133536;28;19908;-44
2023/08/31 01:14:47;;;;;;;;;;;11.90;99.90;;;;;;5133323;28;19919;-43
2023/08/31 01:17:14;;;;;;;;;;;11.90;99.90;;;;;;5133552;28;19912;-44
2023/08/31 01:19:50;;;;;;;;;;;11.90;99.90;;;;;;5133314;28;19994;-44
2023/08/31 01:22:21;;;;;;;;;;;11.80;99.90;;;;;;5133444;28;19942;-44
2023/08/31 01:24:47;;;;;;;;;;;11.80;99.90;;;;;;5133002;28;20446;-45
2023/08/31 01:27:13;;;;;;;;;;;11.80;99.90;;;;;;5133329;28;20010;-46
2023/08/31 01:29:38;;;;;;;;;;;11.80;99.90;;;;;;5133095;28;19951;-48
2023/08/31 01:32:07;;;;;;;;;;;11.80;99.90;;;;;;5133296;28;19911;-44
2023/08/31 01:34:33;;;;;;;;;;;11.80;99.90;;;;;;5115462;28;19957;-44
2023/08/31 01:37:00;;;;;;;;;;;11.70;99.90;;;;;;5112679;28;19908;-45
2023/08/31 01:39:46;;;;;;;;;;;11.70;99.90;;;;;;5112773;28;20050;-46
2023/08/31 01:42:13;;;;;;;;;;;11.60;99.90;;;;;;5113646;28;19919;-44
2023/08/31 01:44:39;;;;;;;;;;;11.60;99.90;;;;;;5112600;28;19912;-44
2023/08/31 01:47:06;;;;;;;;;;;11.50;99.90;;;;;;5112464;28;19919;-44
2023/08/31 01:49:38;;;;;;;;;;;11.50;99.90;;;;;;5112406;28;19973;-46
2023/08/31 01:52:04;;;;;;;;;;;11.50;99.90;;;;;;5114281;28;20347;-44
2023/08/31 01:54:29;;;;;;;;;;;11.50;99.90;;;;;;5116215;28;19908;-45
2023/08/31 01:56:55;;;;;;;;;;;11.40;99.90;;;;;;5116050;28;19907;-46
2023/08/31 01:59:20;;;;;;;;;;;11.40;99.90;;;;;;5116281;28;20363;-45
2023/08/31 02:01:46;;;;;;;;;;;11.30;99.90;;;;;;5115944;27;20409;-45
2023/08/31 02:04:12;;;;;;;;;;;11.30;99.90;;;;;;5136338;27;19907;-45
2023/08/31 02:06:37;;;;;;;;;;;11.20;99.90;;;;;;5136623;27;19908;-46
2023/08/31 02:09:03;;;;;;;;;;;11.20;99.90;;;;;;5136399;27;20393;-44
2023/08/31 02:11:28;;;;;;;;;;;11.20;99.90;;;;;;5136368;27;19960;-45
2023/08/31 02:13:54;;;;;;;;;;;11.20;99.90;;;;;;5120608;27;19919;-47
2023/08/31 02:16:19;;;;;;;;;;;11.20;99.90;;;;;;5115885;28;19915;-43
2023/08/31 02:18:45;;;;;;;;;;;11.10;99.90;;;;;;5115659;28;19908;-45
2023/08/31 02:21:10;;;;;;;;;;;11.20;99.90;;;;;;5115698;27;19927;-45
2023/08/31 02:23:36;;;;;;;;;;;11.10;99.90;;;;;;5115587;28;20316;-46
2023/08/31 02:26:01;;;;;;;;;;;11.10;99.90;;;;;;5115671;28;19918;-44
2023/08/31 02:28:27;;;;;;;;;;;11.10;99.90;;;;;;5115422;28;20018;-45
2023/08/31 02:30:59;;;;;;;;;;;11.20;99.90;;;;;;5115445;28;20165;-46
2023/08/31 02:33:25;;;;;;;;;;;11.20;99.90;;;;;;5115482;28;20331;-45
2023/08/31 02:35:50;;;;;;;;;;;11.10;99.90;;;;;;5115341;28;20707;-45
2023/08/31 02:38:15;;;;;;;;;;;11.10;99.90;;;;;;5115324;28;19919;-45
2023/08/31 02:40:41;;;;;;;;;;;11.10;99.90;;;;;;5115167;28;19915;-43
2023/08/31 02:43:07;;;;;;;;;;;11.10;99.90;;;;;;5115298;28;19908;-45
2023/08/31 02:45:32;;;;;;;;;;;11.10;99.90;;;;;;5114886;28;19908;-44
2023/08/31 02:47:58;;;;;;;;;;;11.10;99.90;;;;;;5115367;28;19908;-45
2023/08/31 02:50:24;;;;;;;;;;;11.10;99.90;;;;;;5114930;27;19920;-44
2023/08/31 02:52:49;;;;;;;;;;;11.10;99.90;;;;;;5114966;28;20366;-44
2023/08/31 02:55:15;;;;;;;;;;;11.20;99.90;;;;;;5115107;28;19915;-45
2023/08/31 02:57:40;;;;;;;;;;;11.20;99.90;;;;;;5114946;28;19908;-46
2023/08/31 03:00:10;;;;;;;;;;;11.30;99.90;;;;;;5115855;27;20397;-45
2023/08/31 03:02:36;;;;;;;;;;;11.30;99.90;;;;;;5134603;27;19911;-45
2023/08/31 03:05:02;;;;;;;;;;;11.30;99.90;;;;;;5135058;27;20404;-43
2023/08/31 03:07:27;;;;;;;;;;;11.40;99.90;;;;;;5135460;27;19994;-46
2023/08/31 03:09:53;;;;;;;;;;;11.40;99.90;;;;;;5135150;27;20365;-44
2023/08/31 03:12:18;;;;;;;;;;;11.40;99.90;;;;;;5135281;27;19919;-44
2023/08/31 03:14:44;;;;;;;;;;;11.40;99.90;;;;;;5135179;27;19908;-43
2023/08/31 03:17:09;;;;;;;;;;;11.40;99.90;;;;;;5135417;27;20350;-45
2023/08/31 03:19:34;;;;;;;;;;;11.40;99.90;;;;;;5124011;27;19964;-46
2023/08/31 03:22:00;;;;;;;;;;;11.40;99.90;;;;;;5114443;28;19908;-44
2023/08/31 03:24:26;;;;;;;;;;;11.40;99.90;;;;;;5114496;28;19912;-45
2023/08/31 03:26:52;;;;;;;;;;;11.40;99.90;;;;;;5114317;28;19919;-46
2023/08/31 03:29:17;;;;;;;;;;;11.40;99.90;;;;;;5114344;28;19920;-43
2023/08/31 03:31:43;;;;;;;;;;;11.40;99.90;;;;;;5114234;28;20279;-44
2023/08/31 03:34:08;;;;;;;;;;;11.30;99.90;;;;;;5114289;28;19908;-45
2023/08/31 03:36:34;;;;;;;;;;;11.30;99.90;;;;;;5114074;28;19998;-45
2023/08/31 03:38:59;;;;;;;;;;;11.30;99.90;;;;;;5121312;27;19918;-46
2023/08/31 03:41:25;;;;;;;;;;;11.30;99.90;;;;;;5134820;27;19908;-44
2023/08/31 03:43:50;;;;;;;;;;;11.30;99.90;;;;;;5133640;27;19912;-45
2023/08/31 03:46:16;;;;;;;;;;;11.20;99.90;;;;;;5134343;27;19924;-45
2023/08/31 03:48:41;;;;;;;;;;;11.30;99.90;;;;;;5134033;27;19996;-49
2023/08/31 03:51:06;;;;;;;;;;;11.30;99.90;;;;;;5134452;27;19907;-44
2023/08/31 03:53:32;;;;;;;;;;;11.20;99.90;;;;;;5134437;27;19907;-45
2023/08/31 03:55:57;;;;;;;;;;;11.30;99.90;;;;;;5134429;27;19911;-46
2023/08/31 03:58:23;;;;;;;;;;;11.30;99.90;;;;;;5120579;27;19911;-43
2023/08/31 04:00:49;;;;;;;;;;;11.30;99.90;;;;;;5113771;28;19915;-45
2023/08/31 04:03:14;;;;;;;;;;;11.30;99.90;;;;;;5113846;28;19907;-44
2023/08/31 04:05:40;;;;;;;;;;;11.30;99.90;;;;;;5113635;28;19908;-44
2023/08/31 04:08:06;;;;;;;;;;;11.30;99.90;;;;;;5113599;28;19998;-43
2023/08/31 04:10:32;;;;;;;;;;;11.20;99.90;;;;;;5113493;28;19915;-48
2023/08/31 04:12:57;;;;;;;;;;;11.20;99.90;;;;;;5113494;28;19908;-45
2023/08/31 04:15:23;;;;;;;;;;;11.30;99.90;;;;;;5113282;28;20274;-43
2023/08/31 04:17:49;;;;;;;;;;;11.30;99.90;;;;;;5113428;28;19937;-45
2023/08/31 04:20:15;;;;;;;;;;;11.30;99.90;;;;;;5113435;28;20435;-45
2023/08/31 04:22:40;;;;;;;;;;;11.30;99.90;;;;;;5113416;28;20024;-44
2023/08/31 04:25:06;;;;;;;;;;;11.30;99.90;;;;;;5113360;28;20290;-45
2023/08/31 04:27:31;;;;;;;;;;;11.30;99.90;;;;;;5113208;27;19912;-44
2023/08/31 04:30:00;;;;;;;;;;;11.40;99.90;;;;;;5113294;28;19916;-46
2023/08/31 04:32:26;;;;;;;;;;;11.30;99.90;;;;;;5113467;28;19911;-46
2023/08/31 04:34:51;;;;;;;;;;;11.40;99.90;;;;;;5113226;28;19912;-44
2023/08/31 04:37:17;;;;;;;;;;;11.30;99.90;;;;;;5113265;28;19919;-43
2023/08/31 04:39:42;;;;;;;;;;;11.30;99.90;;;;;;5113212;28;19907;-45
2023/08/31 04:42:08;;;;;;;;;;;11.30;99.90;;;;;;5115989;27;19919;-44
2023/08/31 04:44:34;;;;;;;;;;;11.30;99.90;;;;;;5129231;28;19912;-44
2023/08/31 04:47:00;;;;;;;;;;;11.30;99.90;;;;;;5126611;27;20064;-48
2023/08/31 04:49:26;;;;;;;;;;;11.30;99.90;;;;;;5132125;28;20010;-45
2023/08/31 04:51:52;;;;;;;;;;;11.30;99.90;;;;;;5127356;28;19911;-44
2023/08/31 04:54:17;;;;;;;;;;;11.30;99.90;;;;;;5131383;28;20437;-45
2023/08/31 04:56:43;;;;;;;;;;;11.30;99.90;;;;;;5133023;28;19915;-44
2023/08/31 04:59:08;;;;;;;;;;;11.30;99.90;;;;;;5132254;28;19916;-45
2023/08/31 05:01:34;;;;;;;;;;;11.30;99.90;;;;;;5132975;28;20315;-44
2023/08/31 05:03:59;;;;;;;;;;;11.40;99.90;;;;;;5132917;28;19915;-44
2023/08/31 05:06:25;;;;;;;;;;;11.30;99.90;;;;;;5130721;28;20320;-46
2023/08/31 05:08:51;;;;;;;;;;;11.30;99.90;;;;;;5132980;28;19920;-45
2023/08/31 05:11:16;;;;;;;;;;;11.30;99.90;;;;;;5132745;28;19918;-45
2023/08/31 05:13:42;;;;;;;;;;;11.30;99.90;;;;;;5132743;28;19908;-44
2023/08/31 05:16:08;;;;;;;;;;;11.30;99.90;;;;;;5126330;28;19943;-43
2023/08/31 05:18:33;;;;;;;;;;;11.30;99.90;;;;;;5112615;28;19982;-48
2023/08/31 05:20:58;;;;;;;;;;;11.30;99.90;;;;;;5112643;28;20380;-46
2023/08/31 05:23:24;;;;;;;;;;;11.30;99.90;;;;;;5112854;28;19917;-44
2023/08/31 05:25:49;;;;;;;;;;;11.30;99.90;;;;;;5112598;28;19916;-42
2023/08/31 05:28:15;;;;;;;;;;;11.20;99.90;;;;;;5116607;28;19908;-44
2023/08/31 05:30:51;;;;;;;;;;;11.30;99.90;;;;;;5116617;28;19912;-43
2023/08/31 05:33:17;;;;;;;;;;;11.30;99.90;;;;;;5116463;28;20377;-44
2023/08/31 05:35:42;;;;;;;;;;;11.30;99.90;;;;;;5126232;27;19912;-45
2023/08/31 05:38:08;;;;;;;;;;;11.30;99.90;;;;;;5116474;27;19978;-44
2023/08/31 05:40:33;;;;;;;;;;;11.40;99.90;;;;;;5116434;28;19912;-47
2023/08/31 05:42:59;;;;;;;;;;;11.30;99.90;;;;;;5127360;27;19919;-46
2023/08/31 05:45:24;;;;;;;;;;;11.40;99.90;;;;;;5128076;27;19912;-44
2023/08/31 05:47:50;;;;;;;;;;;11.40;99.90;;;;;;5127966;27;19915;-47
2023/08/31 05:50:15;;;;;;;;;;;11.50;99.90;;;;;;5117319;27;19919;-46
2023/08/31 05:52:43;;;;;;;;;;;11.50;99.90;;;;;;5120539;27;19911;-46
2023/08/31 05:55:09;;;;;;;;;;;11.60;99.90;;;;;;5135496;27;19907;-44
2023/08/31 05:57:35;;;;;;;;;;;11.60;99.90;;;;;;5128363;27;19911;-44
2023/08/31 06:00:01;;;;;;;;;;;11.70;99.90;;;;;;5126722;27;20069;-44
2023/08/31 06:02:26;;;;;;;;;;;11.70;99.90;;;;;;5126993;27;19970;-43
2023/08/31 06:04:51;;;;;;;;;;;11.80;99.90;;;;;;5120040;27;19936;-43
2023/08/31 06:07:17;;;;;;;;;;;11.80;99.90;;;;;;5133061;27;19908;-46
2023/08/31 06:09:43;;;;;;;;;;;11.90;99.90;;;;;;5136391;27;19916;-44
2023/08/31 06:12:08;;;;;;;;;;;12.00;99.90;;;;;;5136577;27;20052;-44
2023/08/31 06:14:34;;;;;;;;;;;12.00;99.90;;;;;;5121805;27;20354;-45
2023/08/31 06:16:59;;;;;;;;;;;12.10;99.90;;;;;;5136212;27;19907;-47
2023/08/31 06:19:25;;;;;;;;;;;12.20;99.90;;;;;;5136288;27;20281;-45
2023/08/31 06:21:50;;;;;;;;;;;12.20;99.90;;;;;;5135234;27;19908;-47
2023/08/31 06:24:15;;;;;;;;;;;12.30;99.90;;;;;;5127689;27;20327;-45
2023/08/31 06:26:41;;;;;;;;;;;12.40;99.90;;;;;;5125965;27;19919;-44
2023/08/31 06:29:09;;;;;;;;;;;12.50;99.90;;;;;;5128350;27;20386;-44
2023/08/31 06:31:34;;;;;;;;;;;12.50;99.90;;;;;;5126894;27;19907;-45
2023/08/31 06:34:00;;;;;;;;;;;12.60;99.90;;;;;;5136075;27;19914;-44
2023/08/31 06:36:25;;;;;;;;;;;12.70;99.90;;;;;;5128902;27;19938;-43
2023/08/31 06:38:51;;;;;;;;;;;12.70;99.90;;;;;;5115036;28;19998;-47
2023/08/31 06:41:16;;;;;;;;;;;12.80;99.90;;;;;;5115382;28;19919;-45
2023/08/31 06:43:42;;;;;;;;;;;12.90;99.90;;;;;;5115213;28;19915;-47
2023/08/31 06:46:07;;;;;;;;;;;13.00;99.90;;;;;;5118720;27;19919;-44
2023/08/31 06:48:33;;;;;;;;;;;13.00;99.90;;;;;;5135572;27;20278;-43
2023/08/31 06:50:58;;;;;;;;;;;13.10;99.90;;;;;;5135813;27;19911;-45
2023/08/31 06:53:24;;;;;;;;;;;13.10;99.90;;;;;;5133897;27;19912;-43
2023/08/31 06:55:49;;;;;;;;;;;13.20;99.90;;;;;;5124087;27;20265;-44
2023/08/31 06:58:15;;;;;;;;;;;13.30;99.90;;;;;;5134241;27;20362;-48
2023/08/31 07:00:40;;;;;;;;;;;13.40;99.90;;;;;;5126403;27;19912;-45
2023/08/31 07:03:06;;;;;;;;;;;13.50;99.90;;;;;;5135217;27;19960;-45
2023/08/31 07:05:37;;;;;;;;;;;13.50;99.90;;;;;;5134413;27;19953;-45
2023/08/31 07:08:03;;;;;;;;;;;13.60;99.90;;;;;;5128145;27;19911;-43
2023/08/31 07:10:29;;;;;;;;;;;13.70;99.90;;;;;;5127164;27;19988;-44
2023/08/31 07:12:55;;;;;;;;;;;13.80;99.90;;;;;;5114125;28;20248;-43
2023/08/31 07:15:20;;;;;;;;;;;13.80;99.90;;;;;;5127696;27;19912;-48
2023/08/31 07:17:46;;;;;;;;;;;13.80;99.90;;;;;;5113240;27;20404;-46
2023/08/31 07:20:12;;;;;;;;;;;13.90;99.90;;;;;;5116402;27;20382;-47
2023/08/31 07:22:37;;;;;;;;;;;14.00;99.90;;;;;;5118084;27;19995;-46
2023/08/31 07:25:03;;;;;;;;;;;14.10;99.90;;;;;;5114534;28;19961;-47
2023/08/31 07:27:29;;;;;;;;;;;14.10;99.90;;;;;;5114489;28;19951;-48
2023/08/31 07:29:55;;;;;;;;;;;14.20;99.90;;;;;;5119022;27;19981;-44
2023/08/31 07:32:20;;;;;;;;;;;14.30;99.90;;;;;;5118906;27;19911;-47
2023/08/31 07:34:45;;;;;;;;;;;14.40;99.90;;;;;;5119626;27;20009;-43
2023/08/31 07:37:11;;;;;;;;;;;14.50;99.90;;;;;;5120136;27;20049;-46
2023/08/31 07:39:36;;;;;;;;;;;14.50;99.90;;;;;;5123188;27;19912;-44
2023/08/31 07:42:02;;;;;;;;;;;14.60;99.90;;;;;;5114741;27;19971;-45
2023/08/31 07:44:27;;;;;;;;;;;14.80;99.90;;;;;;5134617;27;19907;-43
2023/08/31 07:46:53;;;;;;;;;;;14.90;99.90;;;;;;5134137;27;19931;-44
2023/08/31 07:49:19;;;;;;;;;;;15.00;99.90;;;;;;5133745;27;19950;-44
2023/08/31 07:51:44;;;;;;;;;;;15.10;99.90;;;;;;5134506;27;19908;-45
2023/08/31 07:54:09;;;;;;;;;;;15.20;99.90;;;;;;5115920;27;19908;-45
2023/08/31 07:56:35;;;;;;;;;;;15.20;99.90;;;;;;5114857;27;19911;-45
2023/08/31 07:59:00;;;;;;;;;;;15.30;99.90;;;;;;5126673;27;20385;-44
2023/08/31 08:01:27;;;;;;;;;;;15.40;99.90;;;;;;5130885;27;19918;-44
2023/08/31 08:03:52;;;;;;;;;;;15.30;99.90;;;;;;5119862;27;20002;-45
2023/08/31 08:06:18;;;;;;;;;;;15.30;99.90;;;;;;5134024;27;20002;-46
2023/08/31 08:08:44;;;;;;;;;;;15.20;99.90;;;;;;5132901;27;19911;-44
2023/08/31 08:11:09;;;;;;;;;;;15.20;99.90;;;;;;5126788;27;20358;-43
2023/08/31 08:13:34;;;;;;;;;;;15.40;99.90;;;;;;5113321;28;19911;-43
2023/08/31 08:16:00;;;;;;;;;;;15.40;99.90;;;;;;5130228;27;20274;-44
2023/08/31 08:18:26;;;;;;;;;;;15.50;99.90;;;;;;5129385;27;20278;-44
2023/08/31 08:20:51;;;;;;;;;;;15.50;99.90;;;;;;5130535;27;19918;-45
2023/08/31 08:23:17;;;;;;;;;;;15.40;99.90;;;;;;5117868;27;20004;-43
2023/08/31 08:25:42;;;;;;;;;;;15.50;99.90;;;;;;5122193;27;20484;-44
2023/08/31 08:28:08;;;;;;;;;;;15.60;99.90;;;;;;5127437;27;19908;-43
2023/08/31 08:30:33;;;;;;;;;;;15.60;99.90;;;;;;5133770;27;19931;-46
2023/08/31 08:32:59;;;;;;;;;;;15.60;99.90;;;;;;5130736;27;19931;-44
2023/08/31 08:35:25;;;;;;;;;;;15.80;99.90;;;;;;5129560;27;20293;-44
2023/08/31 08:37:51;;;;;;;;;;;15.90;99.90;;;;;;5119520;27;20695;-44
2023/08/31 08:40:17;;;;;;;;;;;16.00;99.90;;;;;;5128500;28;20071;-45
2023/08/31 08:42:43;;;;;;;;;;;16.10;99.90;;;;;;5131752;28;20375;-45
2023/08/31 08:45:10;;;;;;;;;;;16.10;99.90;;;;;;5123606;28;19912;-45
2023/08/31 08:47:35;;;;;;;;;;;16.10;99.90;;;;;;5131838;27;19925;-47
2023/08/31 08:50:02;;;;;;;;;;;16.20;99.90;;;;;;5113424;27;20006;-48
2023/08/31 08:52:28;;;;;;;;;;;16.20;99.90;;;;;;5112940;28;19912;-43
2023/08/31 08:54:53;;;;;;;;;;;16.20;99.90;;;;;;5114572;28;19965;-45
2023/08/31 08:57:19;;;;;;;;;;;16.30;99.90;;;;;;5126186;28;20006;-45
2023/08/31 08:59:44;;;;;;;;;;;16.40;99.90;;;;;;5113656;27;19912;-45
2023/08/31 09:02:10;;;;;;;;;;;16.50;99.90;;;;;;5117560;28;20027;-47
2023/08/31 09:04:36;;;;;;;;;;;16.60;99.90;;;;;;5125515;27;19907;-44
2023/08/31 09:07:02;;;;;;;;;;;16.80;99.90;;;;;;5124540;27;19935;-45
2023/08/31 09:09:27;;;;;;;;;;;16.90;99.90;;;;;;5120944;27;19916;-44
2023/08/31 09:11:55;;;;;;;;;;;17.10;99.90;;;;;;5129867;27;20558;-46
2023/08/31 09:14:21;;;;;;;;;;;17.20;99.90;;;;;;5135739;27;20291;-44
2023/08/31 09:16:48;;;;;;;;;;;17.40;99.90;;;;;;5118648;27;20060;-45
2023/08/31 09:19:20;;;;;;;;;;;17.30;99.90;;;;;;5126745;27;19941;-43
2023/08/31 09:21:47;;;;;;;;;;;17.10;99.90;;;;;;5118375;27;19908;-44
2023/08/31 09:24:13;;;;;;;;;;;16.80;99.90;;;;;;5119093;27;19916;-44
2023/08/31 09:26:39;;;;;;;;;;;16.60;99.90;;;;;;5116665;27;19915;-45
2023/08/31 09:29:08;;;;;;;;;;;16.50;99.90;;;;;;5128887;27;19920;-44
2023/08/31 09:31:34;;;;;;;;;;;16.60;99.90;;;;;;5116946;28;19919;-43
2023/08/31 09:33:59;;;;;;;;;;;16.60;99.90;;;;;;5116220;28;19908;-47
2023/08/31 09:36:26;;;;;;;;;;;16.60;99.90;;;;;;5117015;28;19907;-44
2023/08/31 09:38:51;;;;;;;;;;;16.50;99.90;;;;;;5115829;28;19916;-45
2023/08/31 09:41:17;;;;;;;;;;;16.40;99.90;;;;;;5123602;27;19956;-43
2023/08/31 09:43:42;;;;;;;;;;;16.50;99.90;;;;;;5133205;27;19918;-44
2023/08/31 09:46:08;;;;;;;;;;;16.50;99.90;;;;;;5137249;27;19920;-45
2023/08/31 09:48:37;;;;;;;;;;;16.70;99.90;;;;;;5137480;27;19930;-42
2023/08/31 09:51:04;;;;;;;;;;;16.60;99.90;;;;;;5137055;27;19913;-45
2023/08/31 09:53:30;;;;;;;;;;;16.60;99.90;;;;;;5137457;27;19960;-43
2023/08/31 09:55:56;;;;;;;;;;;16.50;99.90;;;;;;5126593;27;19915;-43
2023/08/31 09:58:22;;;;;;;;;;;16.40;99.90;;;;;;5116965;28;19915;-42
2023/08/31 10:00:51;;;;;;;;;;;16.30;99.90;;;;;;5128168;27;19912;-43
2023/08/31 10:03:17;;;;;;;;;;;16.20;99.90;;;;;;5125770;27;19937;-44
2023/08/31 10:05:49;;;;;;;;;;;16.10;99.90;;;;;;5125781;27;20014;-44
2023/08/31 10:08:16;;;;;;;;;;;16.00;99.90;;;;;;5115939;28;19941;-43
2023/08/31 10:10:41;;;;;;;;;;;15.90;99.90;;;;;;5115472;28;20377;-43
2023/08/31 10:13:07;;;;;;;;;;;15.80;99.90;;;;;;5115382;28;19912;-43
2023/08/31 10:15:34;;;;;;;;;;;15.70;99.90;;;;;;5115846;28;19919;-43
2023/08/31 10:18:00;;;;;;;;;;;15.70;99.90;;;;;;5115844;28;19907;-42
2023/08/31 10:20:28;;;;;;;;;;;15.60;99.90;;;;;;5115774;28;20354;-43
2023/08/31 10:22:54;;;;;;;;;;;15.80;99.90;;;;;;5115654;28;19914;-42
2023/08/31 10:25:20;;;;;;;;;;;15.90;99.90;;;;;;5132655;27;20319;-43
2023/08/31 10:27:51;;;;;;;;;;;16.10;99.90;;;;;;5136324;27;19907;-44
2023/08/31 10:30:22;;;;;;;;;;;16.20;99.90;;;;;;5136130;27;19919;-45
2023/08/31 10:33:06;;;;;;;;;;;16.30;99.90;;;;;;5136040;27;19908;-43
2023/08/31 10:35:42;;;;;;;;;;;16.30;99.90;;;;;;5135523;27;19918;-43
2023/08/31 10:38:22;;;;;;;;;;;16.40;99.90;;;;;;5136060;27;19911;-44
2023/08/31 10:41:18;;;;;;;;;;;16.50;99.90;;;;;;5135879;27;19912;-43
2023/08/31 10:43:45;;;;;;;;;;;16.60;99.90;;;;;;5135437;27;19939;-43
2023/08/31 10:46:17;;;;;;;;;;;16.70;99.90;;;;;;5135722;27;19964;-43
2023/08/31 10:48:52;;;;;;;;;;;16.90;99.90;;;;;;5135647;27;20376;-45
2023/08/31 10:51:18;;;;;;;;;;;17.10;99.90;;;;;;5125054;27;20439;-42
2023/08/31 10:53:45;;;;;;;;;;;17.20;99.90;;;;;;5115094;28;19947;-45
2023/08/31 10:56:11;;;;;;;;;;;17.40;99.90;;;;;;5115156;28;19908;-43
2023/08/31 10:58:36;;;;;;;;;;;17.60;99.90;;;;;;5114979;28;19962;-42
2023/08/31 11:01:03;;;;;;;;;;;17.90;99.90;;;;;;5122438;27;19912;-44
2023/08/31 11:03:29;;;;;;;;;;;18.00;99.90;;;;;;5135465;27;19907;-45
2023/08/31 11:05:55;;;;;;;;;;;17.90;99.90;;;;;;5135391;27;19994;-44
2023/08/31 11:08:21;;;;;;;;;;;17.80;99.90;;;;;;5135411;27;20334;-44
2023/08/31 11:10:47;;;;;;;;;;;17.80;99.90;;;;;;5134788;27;20394;-44
2023/08/31 11:13:16;;;;;;;;;;;17.80;99.90;;;;;;5135319;27;19946;-44
2023/08/31 11:15:44;;;;;;;;;;;17.90;99.90;;;;;;5135195;27;19907;-43
2023/08/31 11:18:10;;;;;;;;;;;17.90;99.90;;;;;;5135195;27;19911;-45
2023/08/31 11:20:36;;;;;;;;;;;18.00;99.90;;;;;;5134790;27;19968;-43
2023/08/31 11:23:02;;;;;;;;;;;18.20;99.90;;;;;;5135135;27;19964;-43
2023/08/31 11:25:30;;;;;;;;;;;18.10;99.90;;;;;;5133936;27;19912;-45
2023/08/31 11:27:59;;;;;;;;;;;18.30;99.90;;;;;;5134949;27;20010;-47
2023/08/31 11:30:25;;;;;;;;;;;18.30;99.90;;;;;;5134390;27;19916;-44
2023/08/31 11:32:52;;;;;;;;;;;18.40;99.90;;;;;;5134747;27;20002;-44
2023/08/31 11:35:18;;;;;;;;;;;18.40;99.90;;;;;;5134870;27;20378;-44
2023/08/31 11:37:44;;;;;;;;;;;18.40;99.90;;;;;;5134634;27;19977;-43
2023/08/31 11:40:10;;;;;;;;;;;18.50;99.90;;;;;;5128194;27;19964;-42
2023/08/31 11:42:36;;;;;;;;;;;18.50;99.90;;;;;;5114606;27;20018;-43
2023/08/31 11:45:11;;;;;;;;;;;18.60;99.90;;;;;;5068318;28;19916;-45
2023/08/31 11:47:39;;;;;;;;;;;18.50;99.90;;;;;;5069873;28;19916;-42
2023/08/31 11:50:05;;;;;;;;;;;18.40;99.90;;;;;;5069752;28;20382;-45
2023/08/31 11:52:31;;;;;;;;;;;18.40;99.90;;;;;;5066544;28;19924;-43
2023/08/31 11:54:57;;;;;;;;;;;18.40;99.90;;;;;;5060747;28;19920;-50
2023/08/31 11:57:26;;;;;;;;;;;18.40;99.90;;;;;;5066807;28;19920;-44
2023/08/31 11:59:55;;;;;;;;;;;18.50;99.90;;;;;;5058669;28;19940;-42
2023/08/31 12:02:20;;;;;;;;;;;18.50;99.90;;;;;;5060160;28;20429;-46
2023/08/31 12:04:46;;;;;;;;;;;18.70;99.90;;;;;;5067560;28;19960;-45
2023/08/31 12:07:15;;;;;;;;;;;18.70;99.90;;;;;;5069088;28;19913;-43
2023/08/31 12:09:44;;;;;;;;;;;18.70;99.90;;;;;;5068361;28;19955;-44
2023/08/31 12:12:09;;;;;;;;;;;18.80;99.90;;;;;;5068805;28;20376;-43
2023/08/31 12:14:37;;;;;;;;;;;18.90;99.90;;;;;;5069407;28;19951;-42
2023/08/31 12:17:03;;;;;;;;;;;19.00;99.90;;;;;;5066794;28;20283;-44
2023/08/31 12:19:30;;;;;;;;;;;18.90;99.90;;;;;;5061654;28;19917;-44
2023/08/31 12:21:56;;;;;;;;;;;19.00;99.90;;;;;;5068752;28;19991;-43
2023/08/31 12:24:22;;;;;;;;;;;19.10;99.90;;;;;;5067452;28;20012;-42
2023/08/31 12:26:48;;;;;;;;;;;19.20;99.90;;;;;;5068896;28;19920;-44
2023/08/31 12:29:14;;;;;;;;;;;19.30;99.90;;;;;;5068544;28;20295;-43
2023/08/31 12:31:40;;;;;;;;;;;19.10;99.90;;;;;;5069129;28;19908;-43
2023/08/31 12:34:06;;;;;;;;;;;18.90;99.90;;;;;;5067032;28;19920;-44
2023/08/31 12:36:32;;;;;;;;;;;18.60;99.90;;;;;;5068733;28;20494;-46
2023/08/31 12:39:01;;;;;;;;;;;18.50;99.90;;;;;;5063197;28;20035;-42
2023/08/31 12:41:27;;;;;;;;;;;18.40;99.90;;;;;;5064352;28;20371;-45
2023/08/31 12:43:52;;;;;;;;;;;18.30;99.90;;;;;;5071684;28;19964;-42
2023/08/31 12:46:18;;;;;;;;;;;18.30;99.90;;;;;;5084413;28;19956;-46
2023/08/31 12:48:43;;;;;;;;;;;18.20;99.90;;;;;;5085499;28;20375;-43
2023/08/31 12:51:09;;;;;;;;;;;18.20;99.90;;;;;;5088803;28;20382;-43
2023/08/31 12:53:37;;;;;;;;;;;18.10;99.90;;;;;;5081914;28;19952;-44
2023/08/31 12:56:03;;;;;;;;;;;17.90;99.90;;;;;;5064128;28;19962;-45
2023/08/31 12:58:29;;;;;;;;;;;17.70;99.90;;;;;;5065600;28;19939;-46
2023/08/31 13:00:57;;;;;;;;;;;17.50;99.90;;;;;;5073204;28;19912;-43
2023/08/31 13:03:22;;;;;;;;;;;17.40;99.90;;;;;;5074774;28;19924;-43
2023/08/31 13:05:48;;;;;;;;;;;17.30;99.90;;;;;;5062613;28;19998;-45
2023/08/31 13:08:14;;;;;;;;;;;17.30;99.90;;;;;;5067104;28;19913;-43
2023/08/31 13:10:39;;;;;;;;;;;17.20;99.90;;;;;;5061535;28;19939;-43
2023/08/31 13:13:05;;;;;;;;;;;17.10;99.90;;;;;;5066696;28;19913;-42
2023/08/31 13:15:33;;;;;;;;;;;16.90;99.90;;;;;;5063164;28;20383;-41
2023/08/31 13:17:59;;;;;;;;;;;16.70;99.90;;;;;;5075531;28;19908;-42
2023/08/31 13:20:25;;;;;;;;;;;16.40;99.90;;;;;;5075450;28;19915;-44
2023/08/31 13:22:51;;;;;;;;;;;16.00;99.90;;;;;;5074191;28;20011;-47
2023/08/31 13:25:16;;;;;;;;;;;15.80;99.90;;;;;;5074666;28;19932;-44
2023/08/31 13:27:42;;;;;;;;;;;15.70;99.90;;;;;;5074896;28;19908;-42
2023/08/31 13:30:09;;;;;;;;;;;15.70;99.90;;;;;;5075047;28;19909;-43
2023/08/31 13:32:34;;;;;;;;;;;15.70;99.90;;;;;;5074716;28;19913;-45
2023/08/31 13:35:00;;;;;;;;;;;15.60;99.90;;;;;;5074754;28;20252;-43
2023/08/31 13:37:25;;;;;;;;;;;15.60;99.90;;;;;;5074815;28;19948;-43
2023/08/31 13:39:52;;;;;;;;;;;15.50;99.90;;;;;;5074663;28;19999;-44
2023/08/31 13:42:17;;;;;;;;;;;15.40;99.90;;;;;;5074649;28;19908;-43
2023/08/31 13:44:43;;;;;;;;;;;15.30;99.90;;;;;;5073871;28;19921;-42
2023/08/31 13:47:09;;;;;;;;;;;15.20;99.90;;;;;;5074545;28;19915;-42
2023/08/31 13:49:34;;;;;;;;;;;15.20;99.90;;;;;;5074415;28;19955;-42
2023/08/31 13:52:00;;;;;;;;;;;15.10;99.90;;;;;;5074531;28;19936;-43
2023/08/31 13:54:25;;;;;;;;;;;15.20;99.90;;;;;;5074490;28;20311;-43
2023/08/31 13:56:51;;;;;;;;;;;15.10;99.90;;;;;;5074372;28;19959;-42
2023/08/31 13:59:17;;;;;;;;;;;15.10;99.90;;;;;;5073879;28;20257;-43
2023/08/31 14:01:42;;;;;;;;;;;15.10;99.90;;;;;;5074142;28;19908;-44
2023/08/31 14:04:08;;;;;;;;;;;15.50;99.90;;;;;;5074296;28;20291;-43
2023/08/31 14:06:33;;;;;;;;;;;16.20;99.90;;;;;;5073330;28;19962;-43
2023/08/31 14:08:59;;;;;;;;;;;16.50;99.90;;;;;;5073779;28;19913;-42
2023/08/31 14:11:24;;;;;;;;;;;16.60;99.90;;;;;;5074009;28;19915;-43